Stillwater, OK

4:55 PM CDT on October 22, 2014 (GMT -0500)
Stillwater, East Side | Change Station
CLOSE
Current Station
Personal Weather Station
Location: Stillwater, OK
Elevation: 935 ft
Nearby Weather Stations

Elev 935 ft 36.12 °N, 97.04 °W | Updated 4 seconds ago

Clear
Clear
78.3 °F
Feels Like 80 °F
N
6.6
Wind Variable Wind from SSE
Gusts 11.2 mph

Today
High -- | Low -- °F
--% Chance of Precip.
Yesterday
High -- | Low -- °F
Precip. -- in
7:41 AM 6:43 PM
Waning Crescent, 1% visible
Pressure 30.04 in
Visibility 10.0 miles
Clouds Scattered Clouds 4800 ft
Mostly Cloudy 6000 ft
Heat Index 80 °F
Dew Point 61 °F
Humidity 55%
Rainfall 0.00 in
Snow Depth Not available.
UV 0.9 out of 12
Pollen 5.50 out of 12
Air Quality Not available.
Flu Activity No Activity
METAR KSWO 222053Z 16010G18KT 10SM SCT048 BKN060 27/14 A3007 RMK AO2 SLP173 T02720139 56021

More Conditions Fewer Conditions

Pressure 30.04 in
Visibility 10.0 miles
Clouds Scattered Clouds 4800 ft
Mostly Cloudy 6000 ft
Heat Index 80 °F
Dew Point 61 °F
Humidity 55%
Rainfall 0.00 in
Snow Depth Not available.
UV 0.9 out of 12
Pollen 5.50 out of 12
Air Quality Not available.
Flu Activity No Activity
METAR KSWO 222053Z 16010G18KT 10SM SCT048 BKN060 27/14 A3007 RMK AO2 SLP173 T02720139 56021

More Conditions Fewer Conditions

10-Day Weather Forecast

Almanac

Astronomy

Oct. 22, 2014 Rise Set
Actual Time 7:41 AM CDT 6:43 PM CDT
Civil Twilight 7:15 AM CDT 7:09 PM CDT
Nautical Twilight 6:45 AM CDT 7:39 PM CDT
Astronomical Twilight 6:15 AM CDT 8:09 PM CDT
Moon 6:26 AM CDT 6:09 PM CDT
Length of Visible Light 11h 54m
Length of Day
11h 01m
Tomorrow will be 2m 9s shorter.
Waning Crescent, 1% of the Moon is Illuminated
Today
Waning Crescent
Oct 23
New
Oct 30
First Quarter
Nov 6
Full
Nov 14
Last Quarter

Today's Extremes

State Highs State Lows

Community

WunderPhotos

Upload Photos

1,764,047 photos uploaded!

WunderBlogs® & News

Nearby

Snow Depth

Station Depth Elevation
No new snow has been reported.

Earthquake Activity

City Distance Mag. Time & Date
Mooreland, Oklahoma 113 miles 2.8 11:04 AM CDT
2014-10-22
Mooreland, Oklahoma 113 miles 3.5 10:58 AM CDT
2014-10-22
Langston, Oklahoma 19 miles 2.9 10:03 AM CDT
2014-10-22
Langston, Oklahoma 19 miles 2.6 8:31 AM CDT
2014-10-22
Minimum magnitude displayed is 2.5.

Coastal Water Temperatures

Place Temperature
No Stations Reporting

Nearby Weather Stations